Latest Weather Observations for Toowoomba

IDQ60801

Issued at 1:12 am EST Monday 18 November 2019 (issued every 10 minutes, with the page automatically refreshed every 10 minutes)

About weather observations | Map of weather stations | Latest weather observations for QLD | Other Formats
Station Details ID: 041529 Name: TOOWOOMBA AIRPORT Lat: -27.54 Lon: 151.91 Height: 640.9 m
Data from the previous 72 hours. | See also: Recent months at Toowoomba
Date/Time
EST
Temp
°C
App
Temp
°C
Dew
Point
°C
Rel
Hum
%
Delta-T
°C
Wind Press
QNH
hPa
Press
MSL
hPa
Rain since
9am
mm
Dir  Spd
km/h
Gust
km/h
Spd
kts
Gust
kts
18/01:00am 17.2 12.4 11.7 70 3.1 E 28 43 15 23 1018.0 1015.0 0.0
18/12:30am 17.7 13.3 13.0 74 2.7 E 28 39 15 21 1018.1 1015.2 0.0
18/12:00am 18.4 14.5 14.5 78 2.3 E 28 39 15 21 1018.3 1015.4 0.0
 
Date/Time
EST
Temp
°C
App
Temp
°C
Dew
Point
°C
Rel
Hum
%
Delta-T
°C
Wind Press
QNH
hPa
Press
MSL
hPa
Rain since
9am
mm
Dir  Spd
km/h
Gust
km/h
Spd
kts
Gust
kts
17/11:30pm 19.4 15.8 15.3 77 2.5 E 28 35 15 19 1018.3 1015.4 0.0
17/11:28pm 19.4 16.2 15.3 77 2.5 E 26 35 14 19 1018.3 1015.4 0.0
17/11:00pm 20.3 18.5 16.9 81 2.1 E 22 28 12 15 1018.3 1015.4 0.0
17/10:30pm 20.7 19.4 16.9 79 2.4 E 19 24 10 13 1018.1 1015.2 0.0
17/10:00pm 21.2 18.2 12.1 56 5.3 SE 19 26 10 14 1018.2 1015.3 0.0
17/09:30pm 22.0 17.9 10.2 47 6.6 S 22 30 12 16 1017.9 1014.9 0.0
17/09:00pm 23.6 16.9 -4.5 15 12.1 SSW 22 32 12 17 1017.3 1014.3 0.0
17/08:30pm 24.3 17.6 -4.0 15 12.4 SSW 22 32 12 17 1016.9 1013.9 0.0
17/08:00pm 24.6 18.5 -3.7 15 12.5 SW 19 24 10 13 1016.4 1013.4 0.0
17/07:30pm 25.8 19.5 -3.7 14 13.2 SSW 20 32 11 17 1016.2 1013.2 0.0
17/07:00pm 26.4 20.2 -3.2 14 13.4 SW 20 32 11 17 1015.9 1012.9 0.0
17/06:30pm 27.5 20.5 -3.3 13 14.1 SW 24 32 13 17 1014.9 1011.9 0.0
17/06:00pm 28.7 20.6 -3.5 12 14.8 SW 30 39 16 21 1014.1 1011.1 0.0
17/05:30pm 29.7 20.8 -5.1 10 15.7 SW 33 46 18 25 1013.3 1010.3 0.0
17/05:12pm 30.5 20.8 -5.9 9 16.3 WSW 37 56 20 30 1013.1 1010.1 0.0
17/05:00pm 30.4 19.9 -6.0 9 16.2 SW 41 52 22 28 1012.8 1009.8 0.0
17/04:34pm 31.3 22.0 -5.3 9 16.6 WSW 35 54 19 29 1012.4 1009.3 0.0
17/04:30pm 31.5 21.8 -5.2 9 16.7 WSW 37 54 20 29 1012.3 1009.2 0.0
17/04:04pm 31.9 22.7 -4.9 9 16.9 WSW 35 59 19 32 1011.7 1008.7 0.0
17/04:00pm 32.6 23.8 -4.3 9 17.2 WSW 33 46 18 25 1011.7 1008.7 0.0
17/03:56pm 32.0 22.4 -4.8 9 16.9 WSW 37 56 20 30 1011.8 1008.8 0.0
17/03:50pm 32.1 22.9 -4.7 9 17.0 SW 35 56 19 30 1011.8 1008.8 0.0
17/03:41pm 31.8 22.7 -3.5 10 16.6 WSW 35 46 19 25 1011.7 1008.7 0.0
17/03:30pm 32.4 22.8 -4.5 9 17.1 WSW 37 59 20 32 1011.7 1008.7 0.0
17/03:27pm 32.6 23.4 -4.3 9 17.2 WSW 35 59 19 32 1011.6 1008.6 0.0
17/03:21pm 32.6 22.5 -5.9 8 17.5 WSW 39 54 21 29 1011.6 1008.6 0.0
17/03:12pm 33.3 24.0 -5.4 8 17.8 WSW 35 54 19 29 1011.6 1008.6 0.0
17/03:00pm 33.2 23.9 -5.5 8 17.8 W 35 50 19 27 1011.6 1008.6 0.0
17/02:32pm 33.4 24.9 -3.7 9 17.6 W 32 50 17 27 1011.6 1008.6 0.0
17/02:30pm 33.2 24.4 -3.9 9 17.5 W 33 50 18 27 1011.5 1008.5 0.0
17/02:03pm 32.9 25.2 -2.7 10 17.1 W 28 48 15 26 1011.3 1008.3 0.0
17/02:00pm 33.5 26.8 -1.0 11 17.1 W 24 37 13 20 1011.6 1008.6 0.0
17/01:31pm 32.8 25.6 2.8 15 15.7 W 30 48 16 26 1012.2 1009.1 0.0
17/01:30pm 32.7 25.1 2.7 15 15.7 WSW 32 48 17 26 1012.2 1009.1 0.0
17/01:26pm 32.8 25.6 2.8 15 15.7 WSW 30 48 16 26 1012.1 1009.0 0.0
17/01:00pm 30.9 24.8 4.6 19 14.1 W 26 37 14 20 1012.8 1009.8 0.0
17/12:30pm 31.9 25.0 4.6 18 14.7 W 30 41 16 22 1013.4 1010.4 0.0
17/12:00pm 30.6 25.8 8.9 26 12.4 WSW 24 32 13 17 1014.1 1011.1 0.0
17/11:30am 30.1 26.0 10.1 29 11.6 W 22 37 12 20 1014.7 1011.7 0.0
17/11:00am 29.7 26.1 11.7 33 10.7 WNW 22 37 12 20 1015.3 1012.2 0.0
17/10:30am 29.3 26.8 12.3 35 10.2 WNW 17 30 9 16 1015.9 1012.9 0.0
17/10:00am 27.5 25.1 13.8 43 8.4 NW 19 28 10 15 1016.3 1013.3 0.0
17/09:30am 27.0 25.4 15.1 48 7.4 NNW 17 24 9 13 1016.5 1013.5 0.0
17/09:00am 25.8 24.1 14.6 50 6.9 NW 17 24 9 13 1016.7 1013.8 0.0
17/08:30am 24.4 22.9 14.2 53 6.2 NNW 15 22 8 12 1017.2 1014.2 0.0
17/08:00am 22.1 21.8 15.5 66 4.1 ENE 11 17 6 9 1017.5 1014.5 0.0
17/07:30am 21.5 21.0 16.0 71 3.4 NE 13 19 7 10 1017.6 1014.6 0.0
17/07:00am 20.3 19.5 16.1 77 2.6 ENE 15 20 8 11 1017.5 1014.5 0.0
17/06:30am 19.2 17.6 16.1 82 1.9 ENE 19 22 10 12 1017.4 1014.4 0.0
17/06:00am 17.9 16.0 15.7 87 1.3 E 20 26 11 14 1017.2 1014.2 0.0
17/05:30am 17.4 15.4 15.4 88 1.2 E 20 24 11 13 1016.9 1013.9 0.0
17/05:00am 16.9 14.7 14.9 88 1.2 E 20 22 11 12 1016.7 1013.8 0.0
17/04:35am 17.0 14.7 14.6 86 1.4 ENE 20 26 11 14 1016.4 1013.4 0.0
17/04:30am 17.0 14.9 14.6 86 1.4 E 19 24 10 13 1016.3 1013.3 0.0
17/04:08am 17.2 14.5 14.5 84 1.6 E 22 28 12 15 1016.3 1013.3 0.0
17/04:00am 17.2 14.1 14.5 84 1.6 E 24 28 13 15 1016.3 1013.3 0.0
17/03:30am 17.5 14.0 14.4 82 1.8 E 26 32 14 17 1015.9 1012.9 0.0
17/03:00am 17.6 14.5 14.5 82 1.8 E 24 32 13 17 1016.1 1013.1 0.0
17/02:30am 17.9 15.4 14.2 79 2.2 E 20 30 11 16 1016.3 1013.3 0.0
17/02:00am 18.2 14.5 13.9 76 2.5 E 26 32 14 17 1016.1 1013.1 0.0
17/01:30am 18.6 14.5 13.9 74 2.8 E 28 35 15 19 1016.2 1013.2 0.0
17/01:00am 19.0 15.6 13.8 72 3.1 E 24 32 13 17 1016.5 1013.5 0.0
17/12:30am 19.3 15.9 14.8 75 2.7 E 26 32 14 17 1016.5 1013.5 0.0
17/12:00am 19.8 17.0 16.3 80 2.2 E 26 33 14 18 1016.9 1013.9 0.0
 
Date/Time
EST
Temp
°C
App
Temp
°C
Dew
Point
°C
Rel
Hum
%
Delta-T
°C
Wind Press
QNH
hPa
Press
MSL
hPa
Rain since
9am
mm
Dir  Spd
km/h
Gust
km/h
Spd
kts
Gust
kts
16/11:30pm 20.2 16.5 16.0 77 2.6 E 30 37 16 20 1017.3 1014.3 0.0
16/11:00pm 20.6 17.5 15.6 73 3.1 ENE 26 37 14 20 1017.5 1014.5 0.0
16/10:30pm 21.1 17.0 15.0 68 3.7 E 30 35 16 19 1017.2 1014.2 0.0
16/10:00pm 21.6 17.7 14.3 63 4.4 E 28 37 15 20 1017.3 1014.3 0.0
16/09:30pm 22.2 18.0 13.5 57 5.2 E 28 35 15 19 1017.2 1014.2 0.0
16/09:00pm 22.9 18.6 13.1 54 5.8 E 28 39 15 21 1016.9 1013.9 0.0
16/08:30pm 23.5 19.0 13.7 54 5.9 E 30 37 16 20 1016.4 1013.4 0.0
16/08:00pm 24.4 19.8 14.5 54 6.0 E 32 41 17 22 1016.1 1013.1 0.0
16/07:30pm 25.5 21.8 14.9 52 6.5 E 28 43 15 23 1016.1 1013.1 0.0
16/07:29pm 25.6 21.9 15.0 52 6.5 ESE 28 43 15 23 1016.0 1013.0 0.0
16/07:00pm 29.1 23.7 -4.3 11 15.2 SSW 15 20 8 11 1015.0 1012.0 0.0
16/06:30pm 30.1 24.3 -4.8 10 15.8 SSW 17 26 9 14 1014.4 1011.4 0.0
16/06:00pm 31.3 25.6 -3.9 10 16.4 WSW 17 22 9 12 1013.9 1010.8 0.0
16/05:30pm 32.4 26.6 -4.5 9 17.1 WSW 17 24 9 13 1013.4 1010.4 0.0
16/05:00pm 33.2 27.6 -2.5 10 17.2 SW 17 24 9 13 1012.9 1009.9 0.0
16/04:30pm 33.0 25.7 -2.6 10 17.1 W 26 37 14 20 1013.0 1010.0 0.0
16/04:00pm 33.4 27.5 -1.0 11 17.0 W 20 35 11 19 1013.1 1010.1 0.0
16/03:30pm 33.6 27.5 -2.2 10 17.4 WSW 20 32 11 17 1013.3 1010.3 0.0
16/03:00pm 34.1 27.7 0.7 12 17.1 W 24 37 13 20 1013.4 1010.4 0.0
16/02:30pm 33.3 26.9 1.2 13 16.5 W 24 32 13 17 1013.8 1010.7 0.0
16/02:00pm 32.2 26.4 2.3 15 15.5 SW 22 33 12 18 1014.2 1011.2 0.0
16/01:30pm 33.5 27.9 3.3 15 16.0 W 22 35 12 19 1014.8 1011.8 0.0
16/01:00pm 32.4 27.7 5.1 18 14.8 W 19 32 10 17 1015.3 1012.2 0.0
16/12:30pm 33.4 28.9 5.9 18 15.2 NW 19 28 10 15 1015.8 1012.8 0.0
16/12:00pm 30.9 25.5 4.6 19 14.1 W 22 39 12 21 1016.3 1013.3 0.0
16/11:30am 30.8 25.9 5.3 20 13.8 WNW 20 30 11 16 1016.6 1013.6 0.0
16/11:00am 30.4 25.2 5.6 21 13.4 NW 22 33 12 18 1017.0 1014.0 0.0
16/10:30am 29.4 25.0 6.7 24 12.5 NW 19 32 10 17 1017.4 1014.4 0.0
16/10:00am 29.2 24.5 7.7 26 12.0 NW 22 32 12 17 1017.5 1014.5 0.0
16/09:30am 28.2 23.9 8.0 28 11.3 WNW 20 30 11 16 1017.8 1014.8 0.0
16/09:00am 27.2 23.3 9.5 33 10.1 NW 20 26 11 14 1017.9 1014.9 0.0
16/08:30am 25.7 22.3 10.7 39 8.6 WNW 19 26 10 14 1017.8 1014.8 0.0
16/08:00am 24.5 21.5 12.5 47 7.1 WNW 20 28 11 15 1018.0 1015.0 0.0
16/07:30am 23.8 21.3 13.6 52 6.1 NW 19 26 10 14 1017.8 1014.8 0.0
16/07:00am 23.0 20.5 13.5 55 5.7 NW 19 26 10 14 1017.7 1014.7 0.0
16/06:30am 22.1 20.0 13.5 58 5.1 NW 17 24 9 13 1017.5 1014.5 0.0
16/06:00am 21.1 19.7 13.5 62 4.5 NNW 13 17 7 9 1017.2 1014.2 0.0
16/05:30am 19.9 18.9 13.4 66 3.8 NNW 11 13 6 7 1017.0 1014.0 0.0
16/05:00am 19.4 18.2 12.9 66 3.8 NNW 11 13 6 7 1016.7 1013.8 0.0
16/04:30am 19.6 18.5 13.1 66 3.8 NNW 11 15 6 8 1016.5 1013.5 0.0
16/04:00am 19.8 18.3 13.0 65 4.0 NW 13 15 7 8 1016.5 1013.5 0.0
16/03:30am 19.5 18.0 13.0 66 3.8 NNW 13 17 7 9 1016.4 1013.4 0.0
16/03:00am 19.5 18.1 13.4 68 3.6 NNW 13 17 7 9 1016.2 1013.2 0.0
16/02:30am 19.6 18.2 13.5 68 3.6 NNW 13 15 7 8 1016.2 1013.2 0.0
16/02:00am 19.5 18.8 13.2 67 3.7 NNW 9 9 5 5 1016.2 1013.2 0.0
16/01:30am 20.2 18.8 13.4 65 4.0 NNW 13 15 7 8 1016.2 1013.2 0.0
16/01:00am 20.5 18.9 12.7 61 4.5 N 13 17 7 9 1016.1 1013.1 0.0
16/12:30am 21.3 19.0 13.0 59 4.9 N 17 20 9 11 1016.2 1013.2 0.0
16/12:00am 21.7 19.5 12.0 54 5.6 N 15 19 8 10 1016.3 1013.3 0.0
 
Date/Time
EST
Temp
°C
App
Temp
°C
Dew
Point
°C
Rel
Hum
%
Delta-T
°C
Wind Press
QNH
hPa
Press
MSL
hPa
Rain since
9am
mm
Dir  Spd
km/h
Gust
km/h
Spd
kts
Gust
kts
15/11:30pm 21.9 18.1 -3.5 18 11.0 N 7 13 4 7 1016.6 1013.6 0.0
15/11:00pm 22.3 18.1 -3.9 17 11.3 N 9 11 5 6 1016.7 1013.8 0.0
15/10:30pm 23.0 18.7 -5.0 15 11.9 ESE 9 11 5 6 1016.5 1013.5 0.0
15/10:00pm 24.3 19.9 -5.8 13 12.8 S 9 13 5 7 1016.4 1013.4 0.0
15/09:30pm 24.4 20.0 -5.8 13 12.8 S 9 13 5 7 1016.4 1013.4 0.0
15/09:00pm 24.8 20.0 -6.5 12 13.2 S 11 24 6 13 1016.1 1013.1 0.0
15/08:30pm 24.8 20.0 -6.5 12 13.2 S 11 15 6 8 1015.9 1012.9 0.0
15/08:00pm 24.9 20.4 -6.4 12 13.2 SSW 9 13 5 7 1015.6 1012.6 0.0
15/07:30pm 25.4 20.1 -7.2 11 13.6 SW 13 15 7 8 1015.5 1012.5 0.0
15/07:00pm 26.4 21.1 -7.6 10 14.2 WSW 13 17 7 9 1015.1 1012.1 0.0
15/06:30pm 27.6 21.1 -8.1 9 15.0 WSW 19 24 10 13 1014.6 1011.6 0.0
15/06:00pm 29.2 22.5 -8.4 8 15.9 WSW 20 28 11 15 1014.2 1011.2 0.0
15/05:30pm 30.1 22.7 -7.7 8 16.3 W 24 35 13 19 1013.9 1010.8 0.0
15/05:00pm 30.9 23.0 -8.9 7 16.9 W 26 39 14 21 1013.6 1010.5 0.0
15/04:30pm 31.8 24.7 -8.2 7 17.4 WNW 22 37 12 20 1013.2 1010.2 0.0
15/04:00pm 31.7 23.8 -8.3 7 17.3 W 26 37 14 20 1013.2 1010.2 0.0
15/03:30pm 31.5 23.6 -8.4 7 17.2 WNW 26 37 14 20 1013.3 1010.3 0.0
15/03:00pm 32.4 24.6 -7.8 7 17.7 W 26 41 14 22 1013.4 1010.4 0.0
15/02:30pm 31.3 24.6 -8.6 7 17.1 WNW 20 32 11 17 1013.8 1010.7 0.0
15/02:00pm 31.0 23.8 -5.5 9 16.5 W 24 33 13 18 1014.3 1011.3 0.0
15/01:30pm 30.7 23.8 -5.8 9 16.4 WNW 22 33 12 18 1014.7 1011.7 0.0
15/01:00pm 30.9 24.8 -4.2 10 16.2 WNW 19 28 10 15 1015.3 1012.2 0.0
15/12:30pm 30.2 23.1 -4.8 10 15.9 W 24 37 13 20 1015.8 1012.8 0.0
15/12:00pm 30.4 23.4 -3.3 11 15.7 W 24 37 13 20 1016.1 1013.1 0.0
15/11:30am 28.3 21.6 -3.8 12 14.6 WNW 22 37 12 20 1016.5 1013.5 0.0
15/11:00am 28.6 22.7 -2.5 13 14.5 WNW 19 35 10 19 1017.1 1014.1 0.0
15/10:30am 28.1 22.6 -1.9 14 14.1 WNW 17 28 9 15 1017.6 1014.6 0.0
15/10:00am 27.2 22.6 1.6 19 12.7 WNW 15 22 8 12 1018.0 1015.0 0.0
15/09:30am 25.4 21.2 1.5 21 11.7 WNW 13 20 7 11 1018.1 1015.2 0.0
15/09:00am 24.9 20.9 3.0 24 11.0 NNW 13 20 7 11 1018.2 1015.3 0.0
15/08:30am 23.9 21.1 3.2 26 10.4 WNW 7 13 4 7 1018.1 1015.2 0.0
15/08:00am 22.7 20.7 8.8 41 7.6 WSW 9 19 5 10 1018.0 1015.0 0.0
15/07:30am 21.6 20.9 10.1 48 6.4 WSW 4 9 2 5 1018.1 1015.2 0.0
15/07:00am 19.4 19.6 14.2 72 3.1 E 6 9 3 5 1017.9 1014.9 0.0
15/06:36am 17.8 17.9 15.4 86 1.4 E 9 11 5 6 1017.8 1014.8 0.0
15/06:30am 17.4 17.1 15.4 88 1.2 E 11 13 6 7 1017.7 1014.7 0.0
15/06:00am 16.1 15.6 15.9 99 0.1 E 13 15 7 8 1017.5 1014.5 0.0
15/05:30am 15.2 14.4 15.0 99 0.1 E 13 15 7 8 1017.2 1014.2 0.0
15/05:21am 14.9 14.3 14.7 99 0.1 E 11 13 6 7 1017.1 1014.1 0.0
15/05:00am 15.0 14.1 14.8 99 0.1 E 13 17 7 9 1016.9 1013.9 0.0
15/04:30am 15.3 14.1 15.1 99 0.1 ENE 15 19 8 10 1016.5 1013.5 0.0
15/04:00am 15.4 13.9 15.2 99 0.1 E 17 20 9 11 1016.3 1013.3 0.0
15/03:34am 15.3 13.7 15.1 99 0.1 E 17 19 9 10 1016.2 1013.2 0.0
15/03:30am 15.3 14.1 15.1 99 0.1 E 15 19 8 10 1016.2 1013.2 0.0
15/03:11am 15.4 13.9 15.2 99 0.1 E 17 19 9 10 1016.3 1013.3 0.0
15/03:00am 15.6 14.1 15.4 99 0.1 E 17 20 9 11 1016.3 1013.3 0.0
15/02:38am 15.8 14.4 15.6 99 0.1 E 17 22 9 12 1016.4 1013.4 0.0
15/02:30am 15.7 14.3 15.5 99 0.1 E 17 22 9 12 1016.4 1013.4 0.0
15/02:22am 15.7 14.3 15.5 99 0.1 E 17 20 9 11 1016.4 1013.4 0.0
15/02:00am 15.7 14.3 15.5 99 0.1 E 17 20 9 11 1016.4 1013.4 0.0
15/01:52am 15.8 14.4 15.6 99 0.1 E 17 20 9 11 1016.4 1013.4 0.0
15/01:36am 15.9 14.6 15.7 99 0.1 E 17 20 9 11 1016.4 1013.4 0.0
15/01:30am 15.9 14.6 15.7 99 0.1 E 17 20 9 11 1016.5 1013.5 0.0
15/01:14am 15.9 14.2 15.7 99 0.1 E 19 22 10 12 1016.6 1013.6 0.0

Other formats

Comma delimited format used in spreadsheet applications
http://www.bom.gov.au/fwo/IDQ60801/IDQ60801.95551.axf

JavaScript Object Notation format (JSON) in row-major order
http://www.bom.gov.au/fwo/IDQ60801/IDQ60801.95551.json

Data quality

Most of these data are generated automatically and are frequently updated. Quality checks on data are not normally performed. It is possible for incorrect values to appear. Refer to information at About Latest Weather Observations and please check the disclaimer before using these data.